createdAt,value
2022-09-06T00:05:53.038Z,1.73
2022-09-06T00:15:54.481Z,1.73
2022-09-06T00:26:02.471Z,1.90
2022-09-06T00:36:04.194Z,2.25
2022-09-06T00:46:08.064Z,2.30
2022-09-06T00:56:09.826Z,2.38
2022-09-06T01:06:17.288Z,2.28
2022-09-06T01:16:31.444Z,3.08
2022-09-06T01:27:10.119Z,3.05
2022-09-06T01:37:14.496Z,2.83
2022-09-06T01:47:53.132Z,2.40
2022-09-06T01:58:17.734Z,3.00
2022-09-06T02:08:26.124Z,2.38
2022-09-06T02:18:49.850Z,3.05
2022-09-06T02:28:51.753Z,2.38
2022-09-06T02:38:53.622Z,2.42
2022-09-06T02:48:55.065Z,2.25
2022-09-06T03:08:58.447Z,2.27
2022-09-06T03:18:59.926Z,2.53
2022-09-06T03:39:02.748Z,2.38
2022-09-06T03:59:05.531Z,1.60
2022-09-06T04:27:16.699Z,1.95
2022-09-06T04:37:18.119Z,1.90
2022-09-06T05:09:57.639Z,1.98
2022-09-06T05:19:59.066Z,1.45
2022-09-06T05:30:00.547Z,1.80
2022-09-06T05:40:02.474Z,1.30
2022-09-06T05:50:04.466Z,1.45
2022-09-06T06:00:06.610Z,1.85
2022-09-06T06:10:12.869Z,1.63
2022-09-06T06:30:18.479Z,1.50
2022-09-06T06:40:20.105Z,1.40
2022-09-06T07:00:26.342Z,1.02
2022-09-06T07:10:32.902Z,1.27
2022-09-06T07:30:55.888Z,1.43
2022-09-06T07:40:59.860Z,1.33
2022-09-06T07:51:07.492Z,1.15
2022-09-06T08:01:19.955Z,1.20
2022-09-06T08:11:22.173Z,2.10
2022-09-06T08:21:25.157Z,1.10
2022-09-06T08:31:28.819Z,1.20
2022-09-06T08:41:32.150Z,1.35
2022-09-06T08:51:48.470Z,1.25
2022-09-06T09:01:49.887Z,1.35
2022-09-06T09:11:51.544Z,1.60
2022-09-06T09:21:53.035Z,1.70
2022-09-06T09:31:55.781Z,2.40
2022-09-06T09:41:57.396Z,2.85
2022-09-06T09:52:10.107Z,2.08
2022-09-06T10:02:19.604Z,1.95
2022-09-06T10:12:42.489Z,1.92
2022-09-06T10:22:51.481Z,2.10
2022-09-06T10:33:06.877Z,3.20
2022-09-06T10:43:17.230Z,2.03
2022-09-06T10:53:21.341Z,2.03
2022-09-06T11:13:51.394Z,2.30
2022-09-06T11:24:06.895Z,1.80
2022-09-06T11:34:19.595Z,2.53
2022-09-06T11:44:49.516Z,2.17
2022-09-06T11:54:52.711Z,2.53
2022-09-06T12:05:00.745Z,2.10
2022-09-06T12:15:27.069Z,2.50
2022-09-06T12:25:34.613Z,2.35
2022-09-06T12:56:09.735Z,2.40
2022-09-06T13:06:22.139Z,2.25
2022-09-06T13:17:05.323Z,2.08
2022-09-06T13:20:28.330Z,2.25
2022-09-06T13:23:39.459Z,2.00
2022-09-06T13:26:40.881Z,2.10
2022-09-06T13:29:54.745Z,2.00
2022-09-06T13:32:56.195Z,2.13
2022-09-06T13:36:11.240Z,2.42
2022-09-06T13:39:28.859Z,2.15
2022-09-06T13:42:33.233Z,2.17
2022-09-06T13:45:34.884Z,2.08
2022-09-06T13:48:37.004Z,1.70
2022-09-06T13:51:39.214Z,1.97
2022-09-06T13:54:40.604Z,2.13
2022-09-06T13:57:42.012Z,2.13
2022-09-06T14:00:43.480Z,2.00
2022-09-06T14:03:44.890Z,2.03
2022-09-06T14:06:46.400Z,1.98
2022-09-06T14:09:47.780Z,1.92
2022-09-06T14:12:49.893Z,2.13
2022-09-06T14:15:51.362Z,2.17
2022-09-06T14:18:52.885Z,1.83
2022-09-06T14:21:54.361Z,2.30
2022-09-06T14:24:55.805Z,1.70
2022-09-06T14:27:57.240Z,1.70
2022-09-06T14:31:08.718Z,2.20
2022-09-06T14:34:10.197Z,2.40
2022-09-06T14:37:13.627Z,1.83
2022-09-06T14:40:27.363Z,2.00
2022-09-06T14:43:29.910Z,1.73
2022-09-06T14:46:31.433Z,2.00
2022-09-06T14:49:32.893Z,2.30
2022-09-06T14:52:34.642Z,2.30
2022-09-06T14:55:36.107Z,2.00
2022-09-06T14:58:38.909Z,2.22
2022-09-06T15:01:41.158Z,2.20
2022-09-06T15:04:42.685Z,2.03
2022-09-06T15:07:44.083Z,3.55
2022-09-06T15:10:53.418Z,2.40
2022-09-06T15:13:54.876Z,1.90
2022-09-06T15:16:57.434Z,2.40
2022-09-06T15:19:58.882Z,2.47
2022-09-06T15:23:24.240Z,2.40
2022-09-06T15:26:21.815Z,2.20
2022-09-06T15:29:23.457Z,2.45
2022-09-06T15:32:24.876Z,2.15
2022-09-06T15:35:26.272Z,2.10
2022-09-06T15:38:27.687Z,3.10
2022-09-06T15:41:31.495Z,1.85
2022-09-06T15:44:32.940Z,2.35
2022-09-06T15:47:34.336Z,2.55
2022-09-06T15:50:50.715Z,2.10
2022-09-06T15:53:53.212Z,2.13
2022-09-06T15:56:54.635Z,2.28
2022-09-06T15:59:56.048Z,2.28
2022-09-06T16:02:57.544Z,2.20
2022-09-06T16:09:28.332Z,2.53
2022-09-06T16:12:29.749Z,2.67
2022-09-06T16:15:31.165Z,2.13
2022-09-06T16:18:34.296Z,2.70
2022-09-06T16:21:38.617Z,2.65
2022-09-06T16:24:40.038Z,2.15
2022-09-06T16:27:41.445Z,2.60
2022-09-06T16:30:43.220Z,2.60
2022-09-06T16:33:45.157Z,2.45
2022-09-06T16:36:46.589Z,2.45
2022-09-06T16:39:48.063Z,2.70
2022-09-06T16:42:49.706Z,3.67
2022-09-06T16:46:01.610Z,2.72
2022-09-06T16:49:03.214Z,2.50
2022-09-06T16:52:04.688Z,2.88
2022-09-06T16:55:06.923Z,2.40
2022-09-06T16:58:08.334Z,2.77
2022-09-06T17:01:10.665Z,2.60
2022-09-06T17:04:12.594Z,2.67
2022-09-06T17:07:14.027Z,2.45
2022-09-06T17:10:15.515Z,2.53
2022-09-06T17:13:16.976Z,3.40
2022-09-06T17:16:22.333Z,1.98
2022-09-06T17:19:23.951Z,3.38
2022-09-06T17:22:25.407Z,2.28
2022-09-06T17:25:26.818Z,2.20
2022-09-06T17:28:28.596Z,2.10
2022-09-06T17:31:30.653Z,2.67
2022-09-06T17:34:32.168Z,2.58
2022-09-06T17:37:33.620Z,2.45
2022-09-06T17:40:35.083Z,2.40
2022-09-06T17:43:37.587Z,1.92
2022-09-06T17:46:52.036Z,2.38
2022-09-06T17:49:58.811Z,2.63
2022-09-06T17:53:00.472Z,2.05
2022-09-06T17:56:12.937Z,2.63
2022-09-06T17:59:14.636Z,2.63
2022-09-06T18:02:16.048Z,2.47
2022-09-06T18:05:18.083Z,2.63
2022-09-06T18:08:19.542Z,2.53
2022-09-06T18:11:22.505Z,1.90
2022-09-06T18:17:25.305Z,2.25
2022-09-06T18:20:26.853Z,1.90
2022-09-06T18:23:29.546Z,2.30
2022-09-06T18:26:31.309Z,2.00
2022-09-06T18:29:32.765Z,2.30
2022-09-06T18:32:34.202Z,2.17
2022-09-06T18:35:40.929Z,2.30
2022-09-06T18:38:42.745Z,2.60
2022-09-06T18:41:44.246Z,2.50
2022-09-06T18:44:45.695Z,2.60
2022-09-06T18:47:47.166Z,2.65
2022-09-06T18:50:48.595Z,3.42
2022-09-06T18:53:50.015Z,3.25
2022-09-06T18:56:51.649Z,4.05
2022-09-06T18:59:53.066Z,3.58
2022-09-06T19:02:54.510Z,3.63
2022-09-06T19:05:55.925Z,3.47
2022-09-06T19:08:59.630Z,4.00
2022-09-06T19:12:01.211Z,4.28
2022-09-06T19:15:02.747Z,4.47
2022-09-06T19:18:04.300Z,3.88
2022-09-06T19:21:08.907Z,4.30
2022-09-06T19:24:11.811Z,4.20
2022-09-06T19:27:13.227Z,4.78
2022-09-06T19:30:14.809Z,4.43
2022-09-06T19:33:16.228Z,4.05
2022-09-06T19:36:19.392Z,4.32
2022-09-06T19:39:21.016Z,4.28
2022-09-06T19:42:22.445Z,4.22
2022-09-06T19:45:23.992Z,4.30
2022-09-06T19:48:25.497Z,4.68
2022-09-06T19:51:27.132Z,4.35
2022-09-06T19:54:28.556Z,4.93
2022-09-06T19:57:29.996Z,4.63
2022-09-06T20:00:35.386Z,4.60
2022-09-06T20:03:38.281Z,4.75
2022-09-06T20:06:39.809Z,4.35
2022-09-06T20:09:41.442Z,4.22
2022-09-06T20:12:43.257Z,4.20
2022-09-06T20:15:44.695Z,4.70
2022-09-06T20:18:46.225Z,3.97
2022-09-06T20:21:47.693Z,4.05
2022-09-06T20:24:49.097Z,4.00
2022-09-06T20:27:50.542Z,4.15
2022-09-06T20:30:51.954Z,4.20
2022-09-06T20:33:53.745Z,3.65
2022-09-06T20:36:55.151Z,4.03
2022-09-06T20:39:56.583Z,4.32
2022-09-06T20:42:58.016Z,4.10
2022-09-06T20:46:00.603Z,4.70
2022-09-06T20:49:03.043Z,4.60
2022-09-06T20:52:04.447Z,4.78
2022-09-06T20:55:06.515Z,4.07
2022-09-06T20:58:07.907Z,4.47
2022-09-06T21:01:14.387Z,4.38
2022-09-06T21:04:16.830Z,3.85
2022-09-06T21:07:18.270Z,3.60
2022-09-06T21:10:19.687Z,4.72
2022-09-06T21:13:21.074Z,3.95
2022-09-06T21:16:25.207Z,4.03
2022-09-06T21:19:26.867Z,3.67
2022-09-06T21:22:28.290Z,3.97
2022-09-06T21:25:29.755Z,3.85
2022-09-06T21:28:34.120Z,4.07
2022-09-06T21:31:36.903Z,3.58
2022-09-06T21:34:38.399Z,3.65
2022-09-06T21:37:39.831Z,3.58
2022-09-06T21:40:41.234Z,3.60
2022-09-06T21:43:43.485Z,3.72
2022-09-06T21:46:45.078Z,3.20
2022-09-06T21:49:46.519Z,3.88
2022-09-06T21:52:47.979Z,3.90
2022-09-06T21:55:49.793Z,4.25
2022-09-06T21:58:56.392Z,3.80
2022-09-06T22:01:57.877Z,3.65
2022-09-06T22:04:59.299Z,4.25
2022-09-06T22:08:00.966Z,3.90
2022-09-06T22:11:15.220Z,4.00
2022-09-06T22:14:16.646Z,4.07
2022-09-06T22:17:18.071Z,4.68
2022-09-06T22:20:19.502Z,3.88
2022-09-06T22:23:20.895Z,3.65
2022-09-06T22:26:23.318Z,3.83
2022-09-06T22:29:24.718Z,3.53
2022-09-06T22:32:26.144Z,4.20
2022-09-06T22:35:27.566Z,3.55
2022-09-06T22:38:30.400Z,3.55
2022-09-06T22:41:32.916Z,3.90
2022-09-06T22:44:34.417Z,3.77
2022-09-06T22:47:35.812Z,3.83
2022-09-06T22:50:37.215Z,3.92
2022-09-06T22:53:38.631Z,3.78
2022-09-06T22:56:40.276Z,3.70
2022-09-06T22:59:41.720Z,3.85
2022-09-06T23:02:43.156Z,3.70
2022-09-06T23:05:44.584Z,4.50
2022-09-06T23:08:46.027Z,4.30
2022-09-06T23:11:47.448Z,4.50
2022-09-06T23:14:48.848Z,4.63
2022-09-06T23:17:50.968Z,4.53
2022-09-06T23:20:52.368Z,4.22
2022-09-06T23:23:55.569Z,4.50
2022-09-06T23:26:57.012Z,4.57
2022-09-06T23:29:58.437Z,4.30
2022-09-06T23:32:59.845Z,4.70
2022-09-06T23:36:01.434Z,4.25
2022-09-06T23:39:02.896Z,4.20
2022-09-06T23:42:04.356Z,4.55
2022-09-06T23:45:06.412Z,3.65
2022-09-06T23:48:07.816Z,3.95
2022-09-06T23:51:09.782Z,3.80
2022-09-06T23:54:11.193Z,3.88
2022-09-06T23:57:12.592Z,3.70
